Indianola, Iowa
Current Conditions -  °F | °C
As of 4:54 AM on Saturday 25 Oct 2014 (Local Time) from KDSM Reporting Station
Clear Clear  
Wind Chill: 52°   Ceiling: Unl
Heat Index: 52°   Visibility: 8mi
Dew Point: 49°   Wind: 5mph
Humidity: 89%   Direction: 330°NNW
Pressure: 30"   Gusts: NA
Location:  41.36°N, 93.56°W
Report Text: KDSM 250954Z 33004KT 8SM CLR 11/09 A3000 RMK AO2 SLP156 T01110094 $
Loading
Personal Weather Stations






























Interactive Weather Map
Tropical Storm Tracking
New forecast layout! Learn more

10-Day Weather Forecast

Advertisements
Track Severe Weather on mobile